sensor_id;sensor_type;location;lat;lon;timestamp;pressure;altitude;pressure_sealevel;temperature;humidity
41515;BME280;27247;48.020;16.720;2023-06-22T00:00:53;100157.72;;;20.67;100.00
41515;BME280;27247;48.020;16.720;2023-06-22T00:05:04;100161.16;;;20.75;100.00
41515;BME280;27247;48.020;16.720;2023-06-22T00:09:14;100153.22;;;20.61;100.00
41515;BME280;27247;48.020;16.720;2023-06-22T00:13:25;100162.78;;;20.64;100.00
41515;BME280;27247;48.020;16.720;2023-06-22T00:17:35;100165.41;;;20.70;100.00
41515;BME280;27247;48.020;16.720;2023-06-22T00:21:45;100165.97;;;20.61;100.00
41515;BME280;27247;48.020;16.720;2023-06-22T00:25:57;100169.25;;;20.51;100.00
41515;BME280;27247;48.020;16.720;2023-06-22T00:30:08;100164.06;;;20.50;100.00
41515;BME280;27247;48.020;16.720;2023-06-22T00:34:18;100166.81;;;20.61;100.00
41515;BME280;27247;48.020;16.720;2023-06-22T00:38:28;100172.22;;;20.61;100.00
41515;BME280;27247;48.020;16.720;2023-06-22T00:42:39;100153.13;;;20.68;100.00
41515;BME280;27247;48.020;16.720;2023-06-22T00:46:49;100150.81;;;20.83;100.00
41515;BME280;27247;48.020;16.720;2023-06-22T00:50:59;100161.28;;;20.80;100.00
41515;BME280;27247;48.020;16.720;2023-06-22T00:55:10;100159.94;;;20.59;100.00
41515;BME280;27247;48.020;16.720;2023-06-22T00:59:21;100149.88;;;20.18;100.00
41515;BME280;27247;48.020;16.720;2023-06-22T01:03:31;100149.16;;;20.11;100.00
41515;BME280;27247;48.020;16.720;2023-06-22T01:12:15;100158.25;;;20.16;100.00
41515;BME280;27247;48.020;16.720;2023-06-22T01:16:31;100152.53;;;20.36;100.00
41515;BME280;27247;48.020;16.720;2023-06-22T01:20:42;100155.81;;;20.26;100.00
41515;BME280;27247;48.020;16.720;2023-06-22T01:25:09;100160.31;;;20.32;100.00
41515;BME280;27247;48.020;16.720;2023-06-22T01:29:21;100153.81;;;20.22;100.00
41515;BME280;27247;48.020;16.720;2023-06-22T01:33:39;100145.78;;;20.27;100.00
41515;BME280;27247;48.020;16.720;2023-06-22T01:37:50;100146.06;;;20.37;100.00
41515;BME280;27247;48.020;16.720;2023-06-22T01:42:02;100135.72;;;20.16;100.00
41515;BME280;27247;48.020;16.720;2023-06-22T01:46:13;100137.00;;;20.13;100.00
41515;BME280;27247;48.020;16.720;2023-06-22T01:50:24;100134.50;;;20.00;100.00
41515;BME280;27247;48.020;16.720;2023-06-22T01:54:35;100116.31;;;20.00;100.00
41515;BME280;27247;48.020;16.720;2023-06-22T02:03:37;100118.44;;;19.98;100.00
41515;BME280;27247;48.020;16.720;2023-06-22T02:08:07;100118.66;;;19.97;100.00
41515;BME280;27247;48.020;16.720;2023-06-22T02:12:25;100110.75;;;19.95;100.00
41515;BME280;27247;48.020;16.720;2023-06-22T02:16:37;100103.44;;;19.96;100.00
41515;BME280;27247;48.020;16.720;2023-06-22T02:20:48;100102.41;;;19.97;100.00
41515;BME280;27247;48.020;16.720;2023-06-22T02:24:58;100114.22;;;20.02;100.00
41515;BME280;27247;48.020;16.720;2023-06-22T02:29:08;100118.13;;;20.06;100.00
41515;BME280;27247;48.020;16.720;2023-06-22T02:33:19;100115.63;;;20.05;100.00
41515;BME280;27247;48.020;16.720;2023-06-22T02:37:31;100115.81;;;19.92;100.00
41515;BME280;27247;48.020;16.720;2023-06-22T02:41:41;100110.72;;;19.84;100.00
41515;BME280;27247;48.020;16.720;2023-06-22T02:45:51;100104.81;;;19.87;100.00
41515;BME280;27247;48.020;16.720;2023-06-22T02:50:02;100111.00;;;19.75;100.00
41515;BME280;27247;48.020;16.720;2023-06-22T02:54:12;100108.84;;;19.66;100.00
41515;BME280;27247;48.020;16.720;2023-06-22T02:58:23;100095.50;;;19.64;100.00
41515;BME280;27247;48.020;16.720;2023-06-22T03:02:34;100104.31;;;19.60;100.00
41515;BME280;27247;48.020;16.720;2023-06-22T03:06:44;100108.53;;;19.56;100.00
41515;BME280;27247;48.020;16.720;2023-06-22T03:11:01;100110.56;;;19.42;100.00
41515;BME280;27247;48.020;16.720;2023-06-22T03:15:12;100112.34;;;19.48;100.00
41515;BME280;27247;48.020;16.720;2023-06-22T03:19:22;100112.50;;;19.35;100.00
41515;BME280;27247;48.020;16.720;2023-06-22T03:23:33;100105.44;;;19.16;100.00
41515;BME280;27247;48.020;16.720;2023-06-22T03:27:43;100108.97;;;18.98;100.00
41515;BME280;27247;48.020;16.720;2023-06-22T03:31:54;100102.41;;;18.87;100.00
41515;BME280;27247;48.020;16.720;2023-06-22T03:36:04;100106.03;;;18.99;100.00
41515;BME280;27247;48.020;16.720;2023-06-22T03:40:14;100109.06;;;19.28;100.00
41515;BME280;27247;48.020;16.720;2023-06-22T03:44:25;100109.66;;;19.48;100.00
41515;BME280;27247;48.020;16.720;2023-06-22T03:48:35;100118.69;;;19.42;100.00
41515;BME280;27247;48.020;16.720;2023-06-22T03:52:46;100111.00;;;19.39;100.00
41515;BME280;27247;48.020;16.720;2023-06-22T03:56:57;100110.47;;;19.49;100.00
41515;BME280;27247;48.020;16.720;2023-06-22T04:01:08;100111.16;;;19.44;100.00
41515;BME280;27247;48.020;16.720;2023-06-22T04:05:21;100114.78;;;19.56;100.00
41515;BME280;27247;48.020;16.720;2023-06-22T04:09:31;100112.13;;;19.68;100.00
41515;BME280;27247;48.020;16.720;2023-06-22T04:13:42;100112.50;;;19.90;100.00
41515;BME280;27247;48.020;16.720;2023-06-22T04:17:54;100118.41;;;19.68;100.00
41515;BME280;27247;48.020;16.720;2023-06-22T04:22:05;100114.53;;;19.39;100.00
41515;BME280;27247;48.020;16.720;2023-06-22T04:26:17;100115.84;;;19.55;100.00
41515;BME280;27247;48.020;16.720;2023-06-22T04:30:27;100115.41;;;19.58;100.00
41515;BME280;27247;48.020;16.720;2023-06-22T04:34:39;100108.09;;;19.77;100.00
41515;BME280;27247;48.020;16.720;2023-06-22T04:38:49;100114.16;;;19.91;100.00
41515;BME280;27247;48.020;16.720;2023-06-22T04:43:02;100104.81;;;20.17;100.00
41515;BME280;27247;48.020;16.720;2023-06-22T04:47:12;100095.38;;;20.19;100.00
41515;BME280;27247;48.020;16.720;2023-06-22T04:51:23;100092.66;;;20.19;100.00
41515;BME280;27247;48.020;16.720;2023-06-22T04:55:40;100104.50;;;20.36;100.00
41515;BME280;27247;48.020;16.720;2023-06-22T04:59:51;100106.81;;;20.51;100.00
41515;BME280;27247;48.020;16.720;2023-06-22T05:04:02;100114.97;;;20.63;100.00
41515;BME280;27247;48.020;16.720;2023-06-22T05:08:14;100121.00;;;20.77;100.00
41515;BME280;27247;48.020;16.720;2023-06-22T05:12:24;100121.03;;;20.88;100.00
41515;BME280;27247;48.020;16.720;2023-06-22T05:16:36;100120.91;;;21.07;100.00
41515;BME280;27247;48.020;16.720;2023-06-22T05:20:47;100122.47;;;21.26;100.00
41515;BME280;27247;48.020;16.720;2023-06-22T05:24:57;100130.34;;;21.51;100.00
41515;BME280;27247;48.020;16.720;2023-06-22T05:29:08;100125.94;;;21.61;100.00
41515;BME280;27247;48.020;16.720;2023-06-22T05:33:18;100134.19;;;21.66;100.00
41515;BME280;27247;48.020;16.720;2023-06-22T05:37:28;100134.88;;;21.85;100.00
41515;BME280;27247;48.020;16.720;2023-06-22T05:41:39;100133.91;;;22.03;100.00
41515;BME280;27247;48.020;16.720;2023-06-22T05:45:49;100127.91;;;22.18;100.00
41515;BME280;27247;48.020;16.720;2023-06-22T05:50:00;100133.03;;;22.31;100.00
41515;BME280;27247;48.020;16.720;2023-06-22T05:54:10;100135.13;;;22.41;100.00
41515;BME280;27247;48.020;16.720;2023-06-22T05:58:23;100126.13;;;22.40;100.00
41515;BME280;27247;48.020;16.720;2023-06-22T06:02:33;100122.91;;;22.60;100.00
41515;BME280;27247;48.020;16.720;2023-06-22T06:06:44;100123.28;;;22.80;99.59
41515;BME280;27247;48.020;16.720;2023-06-22T06:10:57;100129.16;;;22.89;99.86
41515;BME280;27247;48.020;16.720;2023-06-22T06:15:08;100122.53;;;23.02;97.41
41515;BME280;27247;48.020;16.720;2023-06-22T06:19:18;100116.13;;;23.30;95.91
41515;BME280;27247;48.020;16.720;2023-06-22T06:23:28;100122.34;;;23.47;94.24
41515;BME280;27247;48.020;16.720;2023-06-22T06:27:39;100127.44;;;23.60;93.48
41515;BME280;27247;48.020;16.720;2023-06-22T06:31:49;100132.53;;;23.95;92.37
41515;BME280;27247;48.020;16.720;2023-06-22T06:35:59;100130.31;;;24.19;90.43
41515;BME280;27247;48.020;16.720;2023-06-22T06:40:13;100132.47;;;24.39;91.27
41515;BME280;27247;48.020;16.720;2023-06-22T06:44:23;100121.53;;;24.71;89.54
41515;BME280;27247;48.020;16.720;2023-06-22T06:48:34;100129.59;;;24.88;85.54
41515;BME280;27247;48.020;16.720;2023-06-22T06:52:44;100125.94;;;25.04;85.49
41515;BME280;27247;48.020;16.720;2023-06-22T06:56:55;100121.41;;;25.25;85.20
41515;BME280;27247;48.020;16.720;2023-06-22T07:01:05;100115.50;;;25.48;86.19
41515;BME280;27247;48.020;16.720;2023-06-22T07:05:15;100119.06;;;25.54;82.24
41515;BME280;27247;48.020;16.720;2023-06-22T07:09:26;100108.41;;;25.52;83.40
41515;BME280;27247;48.020;16.720;2023-06-22T07:13:36;100093.16;;;25.71;84.11
41515;BME280;27247;48.020;16.720;2023-06-22T07:17:46;100089.44;;;26.03;83.31
41515;BME280;27247;48.020;16.720;2023-06-22T07:21:57;100088.66;;;26.23;nan
41515;BME280;27247;48.020;16.720;2023-06-22T07:26:07;100097.47;;;26.55;80.81
41515;BME280;27247;48.020;16.720;2023-06-22T07:30:18;100090.88;;;26.66;81.44
41515;BME280;27247;48.020;16.720;2023-06-22T07:34:28;100087.84;;;26.83;79.53
41515;BME280;27247;48.020;16.720;2023-06-22T07:38:39;100077.97;;;27.08;78.35
41515;BME280;27247;48.020;16.720;2023-06-22T07:42:49;100082.28;;;27.34;77.50
41515;BME280;27247;48.020;16.720;2023-06-22T07:47:01;100078.09;;;27.47;77.86
41515;BME280;27247;48.020;16.720;2023-06-22T07:51:12;100076.72;;;27.49;77.01
41515;BME280;27247;48.020;16.720;2023-06-22T07:55:23;100085.63;;;26.90;77.13
41515;BME280;27247;48.020;16.720;2023-06-22T07:59:33;100081.81;;;27.12;76.83
41515;BME280;27247;48.020;16.720;2023-06-22T08:03:43;100078.75;;;27.18;72.78
41515;BME280;27247;48.020;16.720;2023-06-22T08:07:54;100084.09;;;27.64;71.99
41515;BME280;27247;48.020;16.720;2023-06-22T08:12:05;100075.22;;;27.77;72.18
41515;BME280;27247;48.020;16.720;2023-06-22T08:16:15;100083.28;;;28.13;71.29
41515;BME280;27247;48.020;16.720;2023-06-22T08:20:26;100083.94;;;28.39;71.51
41515;BME280;27247;48.020;16.720;2023-06-22T08:24:36;100075.31;;;28.50;70.03
41515;BME280;27247;48.020;16.720;2023-06-22T08:28:50;100088.31;;;28.74;69.87
41515;BME280;27247;48.020;16.720;2023-06-22T08:33:00;100083.28;;;28.81;70.21
41515;BME280;27247;48.020;16.720;2023-06-22T08:37:10;100077.38;;;28.98;71.83
41515;BME280;27247;48.020;16.720;2023-06-22T08:41:21;100075.81;;;28.86;69.34
41515;BME280;27247;48.020;16.720;2023-06-22T08:45:31;100067.88;;;28.85;68.71
41515;BME280;27247;48.020;16.720;2023-06-22T08:49:42;100072.63;;;28.74;67.89
41515;BME280;27247;48.020;16.720;2023-06-22T08:53:52;100065.72;;;28.77;68.92
41515;BME280;27247;48.020;16.720;2023-06-22T08:58:02;100067.88;;;28.85;68.69
41515;BME280;27247;48.020;16.720;2023-06-22T09:02:13;100054.53;;;28.68;68.71
41515;BME280;27247;48.020;16.720;2023-06-22T09:06:24;100056.59;;;28.81;69.97
41515;BME280;27247;48.020;16.720;2023-06-22T09:10:34;100056.72;;;29.24;68.36
41515;BME280;27247;48.020;16.720;2023-06-22T09:14:45;100059.25;;;29.20;67.05
41515;BME280;27247;48.020;16.720;2023-06-22T09:18:56;100063.81;;;29.73;66.81
41515;BME280;27247;48.020;16.720;2023-06-22T09:23:06;100059.69;;;30.13;65.39
41515;BME280;27247;48.020;16.720;2023-06-22T09:27:17;100051.22;;;29.48;65.07
41515;BME280;27247;48.020;16.720;2023-06-22T09:31:27;100053.31;;;29.75;65.26
41515;BME280;27247;48.020;16.720;2023-06-22T09:35:37;100041.50;;;29.74;66.06
41515;BME280;27247;48.020;16.720;2023-06-22T09:39:48;100036.16;;;30.02;68.07
41515;BME280;27247;48.020;16.720;2023-06-22T09:43:58;100041.63;;;29.64;65.90
41515;BME280;27247;48.020;16.720;2023-06-22T09:48:08;100037.22;;;29.44;70.07
41515;BME280;27247;48.020;16.720;2023-06-22T09:52:20;100035.66;;;29.57;67.82
41515;BME280;27247;48.020;16.720;2023-06-22T09:56:30;100032.81;;;29.19;67.92
41515;BME280;27247;48.020;16.720;2023-06-22T10:00:41;100038.41;;;29.14;68.75
41515;BME280;27247;48.020;16.720;2023-06-22T10:04:52;100034.75;;;29.43;65.16
41515;BME280;27247;48.020;16.720;2023-06-22T10:09:02;100023.81;;;29.94;65.56
41515;BME280;27247;48.020;16.720;2023-06-22T10:13:13;100027.03;;;30.53;63.42
41515;BME280;27247;48.020;16.720;2023-06-22T10:17:23;100019.88;;;30.84;60.96
41515;BME280;27247;48.020;16.720;2023-06-22T10:21:33;100018.47;;;30.22;63.07
41515;BME280;27247;48.020;16.720;2023-06-22T10:25:44;100016.06;;;30.34;63.89
41515;BME280;27247;48.020;16.720;2023-06-22T10:29:55;100021.88;;;30.65;65.01
41515;BME280;27247;48.020;16.720;2023-06-22T10:34:05;100015.47;;;30.69;62.81
41515;BME280;27247;48.020;16.720;2023-06-22T10:38:15;100007.13;;;31.16;62.74
41515;BME280;27247;48.020;16.720;2023-06-22T10:42:26;100011.09;;;31.37;62.63
41515;BME280;27247;48.020;16.720;2023-06-22T10:46:36;100003.50;;;30.88;62.77
41515;BME280;27247;48.020;16.720;2023-06-22T10:50:47;100010.25;;;30.68;63.95
41515;BME280;27247;48.020;16.720;2023-06-22T10:54:57;100005.25;;;30.84;63.29
41515;BME280;27247;48.020;16.720;2023-06-22T10:59:07;99999.53;;;31.49;62.56
41515;BME280;27247;48.020;16.720;2023-06-22T11:03:18;99986.59;;;31.94;59.14
41515;BME280;27247;48.020;16.720;2023-06-22T11:07:29;99987.81;;;32.01;58.62
41515;BME280;27247;48.020;16.720;2023-06-22T11:11:39;99982.72;;;32.40;60.17
41515;BME280;27247;48.020;16.720;2023-06-22T11:42:52;99954.19;;;33.01;57.79
41515;BME280;27247;48.020;16.720;2023-06-22T11:47:03;99941.75;;;33.38;59.47
41515;BME280;27247;48.020;16.720;2023-06-22T11:51:14;99945.19;;;33.52;57.25
41515;BME280;27247;48.020;16.720;2023-06-22T11:55:24;99935.88;;;33.31;57.17
41515;BME280;27247;48.020;16.720;2023-06-22T11:59:35;99935.28;;;32.94;56.65
41515;BME280;27247;48.020;16.720;2023-06-22T12:03:45;99927.78;;;32.95;57.45
41515;BME280;27247;48.020;16.720;2023-06-22T12:07:56;99936.50;;;32.18;59.51
41515;BME280;27247;48.020;16.720;2023-06-22T12:12:06;99939.28;;;32.40;59.14
41515;BME280;27247;48.020;16.720;2023-06-22T12:16:17;99931.03;;;32.97;57.25
41515;BME280;27247;48.020;16.720;2023-06-22T12:20:27;99930.75;;;33.07;57.70
41515;BME280;27247;48.020;16.720;2023-06-22T12:24:37;99928.16;;;33.28;58.09
41515;BME280;27247;48.020;16.720;2023-06-22T12:28:48;99920.59;;;32.94;56.07
41515;BME280;27247;48.020;16.720;2023-06-22T12:32:58;99915.06;;;32.46;57.48
41515;BME280;27247;48.020;16.720;2023-06-22T12:37:09;99917.72;;;32.06;56.79
41515;BME280;27247;48.020;16.720;2023-06-22T12:41:19;99920.38;;;32.33;57.32
41515;BME280;27247;48.020;16.720;2023-06-22T12:45:29;99916.38;;;32.48;56.37
41515;BME280;27247;48.020;16.720;2023-06-22T12:49:43;99913.00;;;33.17;58.37
41515;BME280;27247;48.020;16.720;2023-06-22T12:53:53;99907.78;;;33.15;57.88
41515;BME280;27247;48.020;16.720;2023-06-22T12:58:04;99905.34;;;33.22;55.87
41515;BME280;27247;48.020;16.720;2023-06-22T13:02:14;99897.56;;;33.76;55.25
41515;BME280;27247;48.020;16.720;2023-06-22T13:06:25;99891.34;;;33.97;55.17
41515;BME280;27247;48.020;16.720;2023-06-22T13:10:35;99889.09;;;33.64;55.69
41515;BME280;27247;48.020;16.720;2023-06-22T13:14:46;99890.69;;;33.74;54.20
41515;BME280;27247;48.020;16.720;2023-06-22T13:18:57;99887.63;;;33.58;57.15
41515;BME280;27247;48.020;16.720;2023-06-22T13:23:07;99883.38;;;33.69;56.32
41515;BME280;27247;48.020;16.720;2023-06-22T13:27:17;99877.69;;;33.57;54.45
41515;BME280;27247;48.020;16.720;2023-06-22T13:31:28;99867.69;;;33.13;55.71
41515;BME280;27247;48.020;16.720;2023-06-22T13:35:38;99865.56;;;33.01;55.47
41515;BME280;27247;48.020;16.720;2023-06-22T13:39:48;99861.06;;;33.48;56.60
41515;BME280;27247;48.020;16.720;2023-06-22T13:43:59;99864.91;;;33.04;56.83
41515;BME280;27247;48.020;16.720;2023-06-22T13:48:09;99858.63;;;32.64;57.44
41515;BME280;27247;48.020;16.720;2023-06-22T13:52:19;99856.75;;;32.82;57.76
41515;BME280;27247;48.020;16.720;2023-06-22T13:56:30;99851.44;;;32.54;57.37
41515;BME280;27247;48.020;16.720;2023-06-22T14:00:40;99833.78;;;32.81;57.77
41515;BME280;27247;48.020;16.720;2023-06-22T14:04:50;99841.59;;;32.96;57.45
41515;BME280;27247;48.020;16.720;2023-06-22T14:09:01;99832.91;;;32.72;60.51
41515;BME280;27247;48.020;16.720;2023-06-22T14:13:11;99823.09;;;33.40;60.07
41515;BME280;27247;48.020;16.720;2023-06-22T14:17:21;99830.03;;;32.86;57.96
41515;BME280;27247;48.020;16.720;2023-06-22T14:21:35;99820.91;;;32.85;59.27
41515;BME280;27247;48.020;16.720;2023-06-22T14:25:45;99807.25;;;33.15;59.72
41515;BME280;27247;48.020;16.720;2023-06-22T14:29:56;99806.13;;;33.50;60.00
41515;BME280;27247;48.020;16.720;2023-06-22T14:34:06;99803.19;;;33.38;57.69
41515;BME280;27247;48.020;16.720;2023-06-22T14:38:16;99803.31;;;33.16;57.87
41515;BME280;27247;48.020;16.720;2023-06-22T14:42:27;99789.44;;;32.64;60.10
41515;BME280;27247;48.020;16.720;2023-06-22T14:46:38;99784.44;;;33.00;60.50
41515;BME280;27247;48.020;16.720;2023-06-22T14:50:49;99782.44;;;32.66;58.48
41515;BME280;27247;48.020;16.720;2023-06-22T14:54:59;99782.59;;;32.70;59.17
41515;BME280;27247;48.020;16.720;2023-06-22T14:59:09;99769.94;;;32.78;61.96
41515;BME280;27247;48.020;16.720;2023-06-22T15:03:20;99775.59;;;32.64;62.24
41515;BME280;27247;48.020;16.720;2023-06-22T15:07:35;99753.59;;;32.42;63.09
41515;BME280;27247;48.020;16.720;2023-06-22T15:11:45;99751.97;;;32.49;62.48
41515;BME280;27247;48.020;16.720;2023-06-22T15:15:56;99750.53;;;32.12;61.71
41515;BME280;27247;48.020;16.720;2023-06-22T15:20:06;99742.00;;;31.60;62.18
41515;BME280;27247;48.020;16.720;2023-06-22T15:24:17;99755.06;;;31.46;64.24
41515;BME280;27247;48.020;16.720;2023-06-22T15:28:28;99749.06;;;31.44;64.20
41515;BME280;27247;48.020;16.720;2023-06-22T15:32:43;99751.13;;;31.16;64.50
41515;BME280;27247;48.020;16.720;2023-06-22T15:36:54;99752.09;;;31.34;65.54
41515;BME280;27247;48.020;16.720;2023-06-22T15:41:04;99748.06;;;31.40;65.43
41515;BME280;27247;48.020;16.720;2023-06-22T15:45:15;99751.94;;;31.17;65.96
41515;BME280;27247;48.020;16.720;2023-06-22T15:49:25;99755.59;;;31.12;68.26
41515;BME280;27247;48.020;16.720;2023-06-22T15:53:37;99750.16;;;30.98;66.46
41515;BME280;27247;48.020;16.720;2023-06-22T15:57:47;99740.94;;;31.03;67.74
41515;BME280;27247;48.020;16.720;2023-06-22T16:01:58;99744.06;;;30.88;67.30
41515;BME280;27247;48.020;16.720;2023-06-22T16:06:08;99736.09;;;31.08;67.85
41515;BME280;27247;48.020;16.720;2023-06-22T16:10:19;99747.06;;;31.00;68.50
41515;BME280;27247;48.020;16.720;2023-06-22T16:14:29;99738.31;;;31.20;68.45
41515;BME280;27247;48.020;16.720;2023-06-22T16:18:40;99731.44;;;31.31;69.65
41515;BME280;27247;48.020;16.720;2023-06-22T16:22:52;99720.13;;;31.19;69.77
41515;BME280;27247;48.020;16.720;2023-06-22T16:27:02;99718.38;;;31.23;68.23
41515;BME280;27247;48.020;16.720;2023-06-22T16:31:13;99722.16;;;31.13;69.60
41515;BME280;27247;48.020;16.720;2023-06-22T16:35:23;99711.59;;;31.29;69.78
41515;BME280;27247;48.020;16.720;2023-06-22T16:39:34;99719.44;;;31.36;70.19
41515;BME280;27247;48.020;16.720;2023-06-22T16:43:44;99708.56;;;31.39;70.51
41515;BME280;27247;48.020;16.720;2023-06-22T16:47:55;99700.59;;;31.38;70.65
41515;BME280;27247;48.020;16.720;2023-06-22T16:52:05;99688.09;;;31.18;71.33
41515;BME280;27247;48.020;16.720;2023-06-22T16:56:16;99679.31;;;31.16;70.54
41515;BME280;27247;48.020;16.720;2023-06-22T17:00:26;99684.72;;;30.99;72.05
41515;BME280;27247;48.020;16.720;2023-06-22T17:04:37;99682.66;;;30.82;72.78
41515;BME280;27247;48.020;16.720;2023-06-22T17:08:48;99681.75;;;30.73;73.79
41515;BME280;27247;48.020;16.720;2023-06-22T17:12:58;99684.97;;;30.66;74.33
41515;BME280;27247;48.020;16.720;2023-06-22T17:17:09;99675.06;;;30.52;74.76
41515;BME280;27247;48.020;16.720;2023-06-22T17:21:23;99672.78;;;30.31;77.07
41515;BME280;27247;48.020;16.720;2023-06-22T17:25:34;99661.56;;;30.14;77.79
41515;BME280;27247;48.020;16.720;2023-06-22T17:29:44;99663.22;;;30.01;79.52
41515;BME280;27247;48.020;16.720;2023-06-22T17:33:54;99650.88;;;29.71;80.46
41515;BME280;27247;48.020;16.720;2023-06-22T17:38:05;99650.75;;;29.63;79.35
41515;BME280;27247;48.020;16.720;2023-06-22T17:42:21;99649.03;;;29.53;79.89
41515;BME280;27247;48.020;16.720;2023-06-22T17:46:37;99643.94;;;29.46;80.22
41515;BME280;27247;48.020;16.720;2023-06-22T17:50:48;99634.91;;;29.41;80.13
41515;BME280;27247;48.020;16.720;2023-06-22T17:54:58;99620.84;;;29.29;80.81
41515;BME280;27247;48.020;16.720;2023-06-22T17:59:12;99624.19;;;29.26;80.80
41515;BME280;27247;48.020;16.720;2023-06-22T18:03:24;99607.63;;;29.12;81.17
41515;BME280;27247;48.020;16.720;2023-06-22T18:07:35;99607.69;;;28.93;82.02
41515;BME280;27247;48.020;16.720;2023-06-22T18:11:49;99614.94;;;28.89;81.64
41515;BME280;27247;48.020;16.720;2023-06-22T18:16:00;99611.91;;;28.72;81.89
41515;BME280;27247;48.020;16.720;2023-06-22T18:20:12;99613.91;;;28.66;81.37
41515;BME280;27247;48.020;16.720;2023-06-22T18:24:23;99605.31;;;28.54;81.38
41515;BME280;27247;48.020;16.720;2023-06-22T18:28:34;99608.31;;;28.39;81.76
41515;BME280;27247;48.020;16.720;2023-06-22T18:32:45;99633.06;;;28.39;80.78
41515;BME280;27247;48.020;16.720;2023-06-22T18:36:57;99644.44;;;28.32;79.51
41515;BME280;27247;48.020;16.720;2023-06-22T18:41:39;99652.84;;;28.17;80.52
41515;BME280;27247;48.020;16.720;2023-06-22T18:46:49;99657.03;;;27.90;81.05
41515;BME280;27247;48.020;16.720;2023-06-22T18:50:52;99655.53;;;27.79;81.23
41515;BME280;27247;48.020;16.720;2023-06-22T18:55:03;99655.66;;;27.69;82.27
41515;BME280;27247;48.020;16.720;2023-06-22T18:59:13;99661.63;;;27.23;86.20
41515;BME280;27247;48.020;16.720;2023-06-22T19:03:31;99664.88;;;27.25;86.98
41515;BME280;27247;48.020;16.720;2023-06-22T19:16:29;99636.84;;;27.28;86.81
41515;BME280;27247;48.020;16.720;2023-06-22T19:20:40;99630.78;;;27.31;86.30
41515;BME280;27247;48.020;16.720;2023-06-22T19:24:50;99633.19;;;27.38;86.02
41515;BME280;27247;48.020;16.720;2023-06-22T19:29:14;99634.53;;;27.41;86.13
41515;BME280;27247;48.020;16.720;2023-06-22T19:33:27;99637.91;;;27.32;86.68
41515;BME280;27247;48.020;16.720;2023-06-22T19:37:38;99632.72;;;27.31;86.50
41515;BME280;27247;48.020;16.720;2023-06-22T19:41:50;99647.16;;;27.42;85.75
41515;BME280;27247;48.020;16.720;2023-06-22T19:46:01;99648.94;;;27.27;86.65
41515;BME280;27247;48.020;16.720;2023-06-22T19:50:12;99644.63;;;27.21;86.35
41515;BME280;27247;48.020;16.720;2023-06-22T19:54:24;99643.63;;;27.12;86.50
41515;BME280;27247;48.020;16.720;2023-06-22T19:58:35;99646.69;;;27.06;87.08
41515;BME280;27247;48.020;16.720;2023-06-22T20:02:52;99646.41;;;27.07;87.25
41515;BME280;27247;48.020;16.720;2023-06-22T20:07:04;99656.59;;;26.96;87.25
41515;BME280;27247;48.020;16.720;2023-06-22T20:11:23;99666.34;;;26.79;88.66
41515;BME280;27247;48.020;16.720;2023-06-22T20:15:39;99660.72;;;26.60;89.40
41515;BME280;27247;48.020;16.720;2023-06-22T20:19:53;99664.31;;;26.55;89.96
41515;BME280;27247;48.020;16.720;2023-06-22T20:24:05;99657.53;;;26.48;90.77
41515;BME280;27247;48.020;16.720;2023-06-22T20:28:17;99653.91;;;26.57;90.16
41515;BME280;27247;48.020;16.720;2023-06-22T20:32:27;99636.59;;;26.62;89.67
41515;BME280;27247;48.020;16.720;2023-06-22T20:36:37;99620.00;;;26.43;90.08
41515;BME280;27247;48.020;16.720;2023-06-22T20:40:57;99614.56;;;26.38;90.40
41515;BME280;27247;48.020;16.720;2023-06-22T20:45:07;99616.25;;;26.34;91.24
41515;BME280;27247;48.020;16.720;2023-06-22T20:49:19;99610.25;;;26.27;92.18
41515;BME280;27247;48.020;16.720;2023-06-22T20:53:30;99604.03;;;26.11;93.90
41515;BME280;27247;48.020;16.720;2023-06-22T20:57:40;99600.19;;;26.12;94.88
41515;BME280;27247;48.020;16.720;2023-06-22T21:01:51;99602.72;;;25.98;96.80
41515;BME280;27247;48.020;16.720;2023-06-22T21:06:06;99599.25;;;25.77;100.00
41515;BME280;27247;48.020;16.720;2023-06-22T21:10:16;99604.47;;;25.79;100.00
41515;BME280;27247;48.020;16.720;2023-06-22T21:14:26;99615.97;;;25.76;100.00
41515;BME280;27247;48.020;16.720;2023-06-22T21:18:37;99628.03;;;25.75;100.00
41515;BME280;27247;48.020;16.720;2023-06-22T21:22:47;99597.00;;;25.90;100.00
41515;BME280;27247;48.020;16.720;2023-06-22T21:26:58;99565.75;;;26.01;100.00
41515;BME280;27247;48.020;16.720;2023-06-22T21:31:08;99550.44;;;25.95;100.00
41515;BME280;27247;48.020;16.720;2023-06-22T21:35:18;99532.94;;;25.91;100.00
41515;BME280;27247;48.020;16.720;2023-06-22T21:39:29;99509.97;;;25.87;100.00
41515;BME280;27247;48.020;16.720;2023-06-22T21:43:39;99500.63;;;25.88;100.00
41515;BME280;27247;48.020;16.720;2023-06-22T21:47:50;99473.63;;;25.76;100.00
41515;BME280;27247;48.020;16.720;2023-06-22T21:52:00;99461.56;;;25.77;100.00
41515;BME280;27247;48.020;16.720;2023-06-22T21:56:10;99446.31;;;25.61;100.00
41515;BME280;27247;48.020;16.720;2023-06-22T22:00:21;99424.41;;;25.61;100.00
41515;BME280;27247;48.020;16.720;2023-06-22T22:04:31;99407.19;;;25.65;100.00
41515;BME280;27247;48.020;16.720;2023-06-22T22:08:41;99389.09;;;25.64;100.00
41515;BME280;27247;48.020;16.720;2023-06-22T22:12:52;99369.63;;;25.71;100.00
41515;BME280;27247;48.020;16.720;2023-06-22T22:17:02;99356.09;;;25.85;100.00
41515;BME280;27247;48.020;16.720;2023-06-22T22:21:13;99367.56;;;25.87;100.00
41515;BME280;27247;48.020;16.720;2023-06-22T22:25:24;99374.28;;;26.04;100.00